Time;durP1;ratioP1;P1;durP2;ratioP2;P2;SDS_P1;SDS_P2;PMS_P1;PMS_P2;Temp;Humidity;BMP_temperature;BMP_pressure;BME280_temperature;BME280_humidity;BME280_pressure;Samples;Min_cycle;Max_cycle;Signal;HPM_P1;HPM_P2
2021/08/27 00:00:32;;;;;;;2.65;1.88;;;28.80;99.90;;;;;;4075417;29;20078;-68
2021/08/27 00:02:37;;;;;;;3.08;1.40;;;28.80;99.90;;;;;;4068771;29;20346;-67
2021/08/27 00:04:43;;;;;;;2.65;1.33;;;28.90;99.90;;;;;;4078948;29;20043;-67
2021/08/27 00:06:47;;;;;;;4.07;1.35;;;28.90;99.90;;;;;;4074224;29;20055;-66
2021/08/27 00:08:52;;;;;;;4.78;1.45;;;28.90;99.90;;;;;;4086457;29;20047;-67
2021/08/27 00:10:56;;;;;;;2.67;1.20;;;29.00;99.90;;;;;;4070863;29;20303;-67
2021/08/27 00:13:01;;;;;;;2.72;1.35;;;29.20;99.90;;;;;;4086418;29;20605;-67
2021/08/27 00:15:07;;;;;;;2.72;1.40;;;29.20;99.90;;;;;;4085311;29;20052;-65
2021/08/27 00:17:15;;;;;;;2.72;1.30;;;29.30;99.90;;;;;;4084167;29;20051;-64
2021/08/27 00:19:20;;;;;;;2.55;1.48;;;29.30;99.90;;;;;;4083184;29;20055;-66
2021/08/27 00:21:24;;;;;;;2.72;1.48;;;29.40;99.90;;;;;;4080833;29;20059;-65
2021/08/27 00:23:33;;;;;;;3.03;1.63;;;29.40;99.90;;;;;;4076266;29;20052;-66
2021/08/27 00:25:38;;;;;;;2.13;1.30;;;29.40;99.90;;;;;;4079839;29;20178;-66
2021/08/27 00:27:43;;;;;;;1.52;1.00;;;29.40;99.90;;;;;;4080779;29;20139;-66
2021/08/27 00:29:48;;;;;;;2.88;1.10;;;29.40;99.90;;;;;;4121256;28;20050;-66
2021/08/27 00:31:53;;;;;;;2.72;1.10;;;29.40;99.90;;;;;;4145277;28;20052;-67
2021/08/27 00:33:58;;;;;;;1.10;1.00;;;29.40;99.90;;;;;;4130194;28;20061;-66
2021/08/27 00:36:03;;;;;;;2.08;1.45;;;29.50;99.90;;;;;;4131202;28;20058;-65
2021/08/27 00:38:14;;;;;;;2.80;1.30;;;29.50;99.90;;;;;;4146441;28;20125;-66
2021/08/27 00:40:19;;;;;;;4.00;1.40;;;29.50;99.90;;;;;;4181340;28;20522;-65
2021/08/27 00:42:24;;;;;;;3.72;1.23;;;29.60;99.90;;;;;;4179925;28;20052;-66
2021/08/27 00:44:29;;;;;;;51.75;7.00;;;29.70;99.90;;;;;;4181041;28;20584;-64
2021/08/27 00:46:34;;;;;;;125.45;10.00;;;29.80;99.90;;;;;;4182068;28;20515;-67
2021/08/27 00:48:41;;;;;;;59.80;6.28;;;29.70;99.90;;;;;;4178541;28;20041;-64
2021/08/27 01:05:33;;;;;;;2.92;1.25;;;29.60;99.90;;;;;;4167587;28;20904;-65
2021/08/27 01:08:10;;;;;;;4.60;1.33;;;29.60;99.90;;;;;;4174193;28;20617;-66
2021/08/27 01:10:26;;;;;;;2.10;1.30;;;29.60;99.90;;;;;;4171606;28;20050;-65
2021/08/27 01:13:03;;;;;;;2.97;1.15;;;29.60;99.90;;;;;;4174053;28;20099;-64
2021/08/27 01:15:32;;;;;;;5.43;1.50;;;29.60;99.90;;;;;;4173343;28;20053;-64
2021/08/27 01:17:40;;;;;;;6.13;1.50;;;29.70;99.90;;;;;;4168858;28;20055;-66
2021/08/27 01:20:24;;;;;;;2.08;1.23;;;29.60;99.90;;;;;;4166643;28;20049;-64
2021/08/27 01:22:54;;;;;;;4.88;1.10;;;29.60;99.90;;;;;;4174161;28;20132;-66
2021/08/27 01:25:00;;;;;;;3.30;1.10;;;29.70;99.90;;;;;;4153031;28;20073;-64
2021/08/27 01:27:05;;;;;;;5.32;1.60;;;29.80;99.90;;;;;;4170525;28;20061;-63
2021/08/27 01:29:11;;;;;;;5.28;1.17;;;29.80;99.90;;;;;;4174485;28;20057;-64
2021/08/27 01:31:46;;;;;;;3.42;1.30;;;29.80;99.90;;;;;;4173605;28;20484;-64
2021/08/27 01:34:22;;;;;;;1.85;1.15;;;29.90;99.90;;;;;;4166081;28;20045;-64
2021/08/27 01:36:33;;;;;;;2.47;1.10;;;29.80;99.90;;;;;;4173582;28;20041;-64
2021/08/27 01:38:38;;;;;;;2.67;1.35;;;29.90;99.90;;;;;;4180176;28;20129;-66
2021/08/27 01:40:48;;;;;;;3.60;1.30;;;29.80;99.90;;;;;;4159671;28;20444;-66
2021/08/27 01:42:53;;;;;;;1.65;1.02;;;29.80;99.90;;;;;;4174653;28;20052;-66
2021/08/27 01:44:59;;;;;;;2.50;0.85;;;29.90;99.90;;;;;;4151528;28;20357;-65
2021/08/27 01:47:07;;;;;;;2.70;1.10;;;30.00;99.90;;;;;;4160903;28;20842;-65
2021/08/27 01:49:15;;;;;;;4.45;1.38;;;30.10;99.90;;;;;;4192464;28;20510;-65
2021/08/27 01:51:19;;;;;;;2.03;0.75;;;30.10;99.90;;;;;;4168392;28;20095;-65
2021/08/27 01:53:27;;;;;;;2.05;1.20;;;30.20;99.90;;;;;;4167240;28;20041;-65
2021/08/27 01:55:36;;;;;;;3.60;1.23;;;30.20;99.90;;;;;;4169201;28;20053;-65
2021/08/27 01:57:41;;;;;;;2.92;1.27;;;30.30;99.90;;;;;;4177199;28;20045;-66
2021/08/27 01:59:46;;;;;;;2.33;1.23;;;30.20;99.90;;;;;;4190014;28;20119;-66
2021/08/27 02:01:51;;;;;;;2.80;1.30;;;30.30;99.90;;;;;;4176965;28;20136;-66
2021/08/27 02:03:57;;;;;;;3.13;1.00;;;30.20;99.90;;;;;;4175146;28;20043;-66
2021/08/27 02:06:01;;;;;;;2.28;1.00;;;30.20;99.90;;;;;;4177004;28;20590;-66
2021/08/27 02:08:06;;;;;;;2.83;1.13;;;30.20;99.90;;;;;;4177816;28;20382;-66
2021/08/27 02:10:10;;;;;;;1.60;1.20;;;30.10;99.90;;;;;;4177362;28;20484;-66
2021/08/27 02:12:15;;;;;;;1.17;0.75;;;30.10;99.90;;;;;;4177835;28;20044;-66
2021/08/27 02:14:20;;;;;;;1.63;1.13;;;30.10;99.90;;;;;;4177053;28;20462;-65
2021/08/27 02:16:25;;;;;;;1.67;1.33;;;30.20;99.90;;;;;;4175519;28;20084;-66
2021/08/27 02:18:31;;;;;;;3.28;2.13;;;30.20;99.90;;;;;;4158710;28;20084;-66
2021/08/27 02:20:35;;;;;;;2.95;1.80;;;30.40;99.60;;;;;;4155731;28;20148;-66
2021/08/27 02:22:42;;;;;;;3.22;1.90;;;30.40;99.60;;;;;;4160196;28;20144;-66
2021/08/27 02:25:02;;;;;;;2.40;1.63;;;30.60;99.70;;;;;;4173326;28;20067;-66
2021/08/27 02:27:08;;;;;;;2.47;1.45;;;30.70;99.30;;;;;;4176232;28;20045;-66
2021/08/27 02:29:14;;;;;;;3.25;1.58;;;30.80;99.20;;;;;;4157165;28;20113;-66
2021/08/27 02:31:19;;;;;;;2.10;1.40;;;30.90;99.00;;;;;;4171795;28;20068;-66
2021/08/27 02:33:26;;;;;;;2.00;1.20;;;31.10;98.60;;;;;;4171641;28;20391;-66
2021/08/27 02:35:31;;;;;;;2.88;1.50;;;31.20;98.10;;;;;;4171042;28;20053;-66
2021/08/27 02:37:37;;;;;;;2.63;1.75;;;31.30;98.20;;;;;;4173381;28;20037;-67
2021/08/27 02:39:42;;;;;;;3.10;1.60;;;31.50;97.50;;;;;;4175722;28;20048;-66
2021/08/27 02:41:47;;;;;;;1.92;1.17;;;31.40;97.30;;;;;;4176427;28;20479;-66
2021/08/27 02:43:51;;;;;;;1.80;1.00;;;31.20;97.20;;;;;;4189838;28;20044;-66
2021/08/27 02:45:57;;;;;;;3.65;1.27;;;31.40;97.00;;;;;;4158354;28;20055;-66
2021/08/27 02:48:01;;;;;;;3.58;1.20;;;31.50;97.00;;;;;;4176383;28;20577;-66
2021/08/27 02:50:06;;;;;;;2.78;1.10;;;31.70;97.10;;;;;;4175983;28;20056;-67
2021/08/27 02:52:32;;;;;;;3.08;1.40;;;31.80;96.60;;;;;;4175033;28;20041;-66
2021/08/27 02:54:44;;;;;;;4.15;1.95;;;31.70;96.20;;;;;;4175901;28;20511;-66
2021/08/27 02:56:49;;;;;;;7.65;2.95;;;31.70;96.00;;;;;;4168839;28;20044;-66
2021/08/27 02:58:54;;;;;;;6.22;3.10;;;31.90;96.10;;;;;;4177215;28;20140;-67
2021/08/27 03:01:38;;;;;;;3.70;2.22;;;31.90;95.90;;;;;;4176379;28;20049;-66
2021/08/27 03:03:45;;;;;;;;;;;31.70;95.70;;;;;;4176498;28;20131;-67
2021/08/27 03:05:49;;;;;;;2.33;1.30;;;31.50;95.90;;;;;;4176221;28;19925;-66
2021/08/27 03:08:06;;;;;;;5.72;1.42;;;31.40;96.30;;;;;;4176418;28;20138;-66
2021/08/27 03:10:30;;;;;;;3.20;1.20;;;31.40;96.30;;;;;;4175922;28;20534;-67
2021/08/27 03:12:37;;;;;;;;;;;31.40;96.30;;;;;;4160767;28;20057;-67
2021/08/27 03:14:42;;;;;;;1.35;1.05;;;31.40;96.70;;;;;;4162226;28;19926;-67
2021/08/27 03:16:47;;;;;;;2.03;1.17;;;31.50;97.00;;;;;;4174025;28;20052;-66
2021/08/27 03:19:04;;;;;;;2.58;1.38;;;31.60;97.60;;;;;;4177780;28;20049;-66
2021/08/27 03:21:23;;;;;;;2.17;1.25;;;31.80;98.00;;;;;;4174661;28;20495;-66
2021/08/27 03:23:29;;;;;;;3.55;1.38;;;31.70;98.20;;;;;;4181494;28;20044;-68
2021/08/27 03:25:38;;;;;;;3.88;1.30;;;31.70;98.00;;;;;;4171676;28;20045;-67
2021/08/27 03:27:47;;;;;;;2.33;1.50;;;31.60;98.30;;;;;;4171207;28;20508;-67
2021/08/27 03:29:59;;;;;;;2.83;1.48;;;31.60;98.00;;;;;;4175629;28;20795;-67
2021/08/27 03:32:04;;;;;;;2.78;1.63;;;31.80;97.60;;;;;;4174468;28;20567;-66
2021/08/27 03:34:09;;;;;;;3.05;1.90;;;31.90;97.10;;;;;;4175812;28;20081;-67
2021/08/27 03:36:13;;;;;;;3.30;1.50;;;32.00;96.60;;;;;;4174813;28;20045;-66
2021/08/27 03:38:18;;;;;;;2.40;1.40;;;32.00;96.10;;;;;;4175679;28;20045;-67
2021/08/27 03:40:23;;;;;;;2.58;1.30;;;32.10;95.70;;;;;;4166571;28;20129;-67
2021/08/27 03:42:27;;;;;;;2.95;1.27;;;32.20;94.70;;;;;;4174748;28;20178;-67
2021/08/27 03:44:34;;;;;;;1.98;1.35;;;32.10;94.90;;;;;;4174687;28;20045;-67
2021/08/27 03:46:39;;;;;;;3.33;1.40;;;32.30;94.70;;;;;;4173940;28;20065;-67
2021/08/27 03:48:44;;;;;;;3.70;1.35;;;32.50;94.30;;;;;;4175698;28;20569;-67
2021/08/27 03:50:50;;;;;;;3.75;1.45;;;32.60;94.20;;;;;;4174376;28;20049;-67
2021/08/27 03:52:54;;;;;;;2.65;1.30;;;32.60;93.90;;;;;;4174780;28;20048;-67
2021/08/27 03:55:00;;;;;;;2.90;1.58;;;32.50;93.70;;;;;;4173175;28;20056;-67
2021/08/27 03:57:05;;;;;;;2.35;1.00;;;32.60;94.10;;;;;;4175605;28;20384;-67
2021/08/27 03:59:10;;;;;;;2.45;1.20;;;32.60;94.40;;;;;;4175283;28;20170;-66
2021/08/27 04:01:15;;;;;;;1.73;1.08;;;32.70;93.80;;;;;;4172813;28;20075;-66
2021/08/27 04:03:20;;;;;;;1.75;1.13;;;32.60;93.50;;;;;;4170179;28;20418;-67
2021/08/27 04:05:25;;;;;;;1.60;1.17;;;32.60;93.50;;;;;;4172102;28;20068;-67
2021/08/27 04:07:30;;;;;;;1.75;1.15;;;32.60;93.60;;;;;;4170347;28;20079;-67
2021/08/27 04:09:35;;;;;;;1.95;1.05;;;32.50;93.30;;;;;;4161313;28;20495;-70
2021/08/27 04:11:40;;;;;;;3.28;1.35;;;32.40;93.50;;;;;;4173560;28;20047;-66
2021/08/27 04:13:45;;;;;;;2.08;1.00;;;32.60;93.50;;;;;;4168769;28;20442;-67
2021/08/27 04:15:50;;;;;;;1.50;1.00;;;32.60;93.50;;;;;;4174705;28;20051;-68
2021/08/27 04:17:54;;;;;;;2.40;1.50;;;32.50;93.50;;;;;;4175412;28;20037;-68
2021/08/27 04:19:59;;;;;;;2.38;0.98;;;32.60;93.60;;;;;;4169133;28;20057;-70
2021/08/27 04:22:04;;;;;;;3.40;1.27;;;32.60;93.60;;;;;;4168432;28;20572;-67
2021/08/27 04:24:08;;;;;;;2.53;1.02;;;32.50;93.70;;;;;;4167997;28;20246;-68
2021/08/27 04:26:13;;;;;;;2.95;1.40;;;32.40;93.70;;;;;;4175689;28;20048;-71
2021/08/27 04:28:17;;;;;;;1.77;1.27;;;32.30;93.70;;;;;;4165078;28;20416;-69
2021/08/27 04:30:21;;;;;;;2.63;1.20;;;32.30;93.80;;;;;;4171508;28;20060;-69
2021/08/27 04:32:26;;;;;;;1.70;1.15;;;32.30;93.60;;;;;;4157401;28;20060;-67
2021/08/27 04:34:30;;;;;;;1.23;0.85;;;32.20;93.40;;;;;;4169183;28;20049;-70
2021/08/27 04:36:34;;;;;;;3.38;1.50;;;32.20;93.00;;;;;;4170410;28;20132;-71
2021/08/27 04:38:39;;;;;;;2.38;1.10;;;32.30;93.00;;;;;;4176160;28;20045;-70
2021/08/27 04:40:43;;;;;;;1.77;1.10;;;32.30;93.30;;;;;;4171498;28;20083;-68
2021/08/27 04:42:48;;;;;;;2.58;1.30;;;32.10;93.20;;;;;;4169483;28;20084;-69
2021/08/27 04:44:53;;;;;;;3.50;2.45;;;32.10;93.20;;;;;;4174862;28;20060;-72
2021/08/27 04:46:57;;;;;;;6.90;3.08;;;32.00;93.20;;;;;;4157880;28;20144;-69
2021/08/27 04:49:02;;;;;;;5.15;2.35;;;31.90;93.20;;;;;;4171009;28;20080;-69
2021/08/27 04:51:07;;;;;;;3.67;2.00;;;31.80;93.20;;;;;;4173064;28;20061;-69
2021/08/27 04:53:12;;;;;;;2.15;1.60;;;31.80;93.20;;;;;;4171546;28;20057;-69
2021/08/27 04:55:16;;;;;;;1.52;1.10;;;31.70;93.30;;;;;;4175352;28;20116;-68
2021/08/27 04:57:21;;;;;;;12.40;9.15;;;31.70;93.60;;;;;;4166974;28;20076;-68
2021/08/27 04:59:26;;;;;;;14.02;11.90;;;31.60;94.00;;;;;;4158353;28;20045;-68
2021/08/27 05:01:31;;;;;;;23.95;15.38;;;31.50;94.30;;;;;;4165398;28;20042;-70
2021/08/27 05:03:36;;;;;;;19.55;13.57;;;31.50;95.20;;;;;;4169108;28;20429;-69
2021/08/27 05:05:42;;;;;;;13.05;9.07;;;31.50;97.20;;;;;;4166983;28;20076;-68
2021/08/27 05:07:47;;;;;;;11.40;6.43;;;31.40;98.40;;;;;;4146597;28;20053;-68
2021/08/27 05:09:51;;;;;;;8.15;4.05;;;31.60;98.20;;;;;;4160361;28;20049;-69
2021/08/27 05:11:56;;;;;;;5.13;2.65;;;31.60;97.90;;;;;;4164705;28;20521;-68
2021/08/27 05:14:00;;;;;;;2.67;2.15;;;31.50;98.60;;;;;;4154038;28;20530;-68
2021/08/27 05:16:05;;;;;;;3.85;2.25;;;31.30;98.10;;;;;;4166162;28;20068;-68
2021/08/27 05:18:09;;;;;;;3.50;1.30;;;31.20;98.40;;;;;;4172888;28;20433;-67
2021/08/27 05:20:14;;;;;;;1.60;1.13;;;31.30;97.70;;;;;;4164983;28;20069;-69
2021/08/27 05:22:18;;;;;;;1.55;1.17;;;31.20;97.60;;;;;;4162636;28;20053;-69
2021/08/27 05:24:23;;;;;;;3.63;1.30;;;31.30;97.60;;;;;;4154193;28;20056;-69
2021/08/27 05:26:28;;;;;;;2.55;1.30;;;31.10;96.80;;;;;;4161911;28;20080;-67
2021/08/27 05:28:32;;;;;;;2.10;0.90;;;31.20;96.60;;;;;;4164068;28;20052;-67
2021/08/27 05:30:37;;;;;;;0.90;0.60;;;31.40;96.00;;;;;;4165523;28;20103;-68
2021/08/27 05:32:42;;;;;;;2.58;0.50;;;31.50;94.40;;;;;;4165563;28;20565;-68
2021/08/27 05:34:47;;;;;;;0.95;0.57;;;31.60;94.40;;;;;;4164814;28;20555;-68
2021/08/27 05:36:52;;;;;;;1.27;0.40;;;31.90;93.70;;;;;;4155805;28;20050;-69
2021/08/27 05:38:56;;;;;;;3.08;0.40;;;32.00;92.50;;;;;;4170939;28;20071;-67
2021/08/27 05:41:00;;;;;;;0.50;0.50;;;32.00;92.00;;;;;;4164329;28;20415;-68
2021/08/27 05:43:05;;;;;;;0.93;0.50;;;32.20;91.70;;;;;;4164774;28;20041;-69
2021/08/27 05:45:10;;;;;;;0.40;0.40;;;32.30;91.20;;;;;;4161735;28;20049;-69
2021/08/27 05:47:14;;;;;;;2.67;0.77;;;32.30;91.10;;;;;;4164673;28;20087;-68
2021/08/27 05:49:19;;;;;;;3.22;1.52;;;32.30;91.30;;;;;;4171951;28;20049;-68
2021/08/27 05:51:23;;;;;;;2.88;0.93;;;32.40;91.70;;;;;;4171769;28;20457;-68
2021/08/27 05:53:28;;;;;;;1.38;0.60;;;32.50;92.00;;;;;;4158599;28;20049;-68
2021/08/27 05:55:32;;;;;;;0.90;0.50;;;32.60;91.40;;;;;;4166558;28;20076;-69
2021/08/27 05:57:37;;;;;;;1.00;0.45;;;32.70;91.30;;;;;;4165681;28;20156;-69
2021/08/27 05:59:42;;;;;;;1.25;0.60;;;32.70;91.20;;;;;;4170548;28;20370;-69
2021/08/27 06:01:47;;;;;;;1.35;0.60;;;32.50;90.70;;;;;;4169697;28;20411;-69
2021/08/27 06:03:52;;;;;;;1.08;0.60;;;32.50;91.20;;;;;;4159989;28;20790;-69
2021/08/27 06:05:58;;;;;;;1.35;0.50;;;32.60;90.70;;;;;;4174109;28;20053;-68
2021/08/27 06:08:02;;;;;;;2.40;0.60;;;32.60;90.50;;;;;;4176023;28;20437;-68
2021/08/27 06:10:08;;;;;;;0.50;0.50;;;32.70;90.40;;;;;;4177273;28;20458;-69
2021/08/27 06:12:13;;;;;;;0.88;0.60;;;32.80;90.10;;;;;;4178040;28;20150;-67
2021/08/27 06:14:17;;;;;;;1.73;0.70;;;32.70;90.10;;;;;;4172690;28;20060;-66
2021/08/27 06:16:22;;;;;;;0.45;0.40;;;32.50;90.80;;;;;;4178032;28;20048;-66
2021/08/27 06:18:26;;;;;;;1.20;0.70;;;32.60;91.20;;;;;;4177056;28;20486;-66
2021/08/27 06:20:32;;;;;;;9.70;1.17;;;32.70;90.80;;;;;;4178266;28;20045;-69
2021/08/27 06:22:37;;;;;;;2.35;0.70;;;32.80;90.90;;;;;;4171601;28;20383;-67
2021/08/27 06:24:42;;;;;;;0.57;0.50;;;33.00;90.70;;;;;;4170952;28;20041;-66
2021/08/27 06:26:46;;;;;;;1.10;0.70;;;33.10;90.40;;;;;;4169532;28;20075;-67
2021/08/27 06:28:51;;;;;;;1.05;0.75;;;33.10;90.20;;;;;;4170737;28;20091;-67
2021/08/27 06:30:55;;;;;;;0.70;0.50;;;33.10;90.30;;;;;;4153908;28;20492;-67
2021/08/27 06:33:00;;;;;;;1.58;0.50;;;33.10;90.00;;;;;;4172075;28;20575;-66
2021/08/27 06:35:05;;;;;;;1.13;0.60;;;33.10;90.20;;;;;;4170052;28;20132;-67
2021/08/27 06:37:10;;;;;;;1.15;0.80;;;33.20;90.30;;;;;;4176937;28;20055;-67
2021/08/27 06:39:14;;;;;;;1.30;0.70;;;33.30;90.20;;;;;;4175053;28;20080;-67
2021/08/27 06:41:19;;;;;;;1.58;0.77;;;33.40;90.40;;;;;;4169244;28;20060;-67
2021/08/27 06:43:27;;;;;;;1.17;0.60;;;33.50;90.20;;;;;;4170236;28;20045;-67
2021/08/27 06:45:31;;;;;;;1.95;0.93;;;33.60;90.20;;;;;;4177419;28;20102;-70
2021/08/27 06:47:36;;;;;;;1.60;0.70;;;33.60;88.70;;;;;;4176439;28;20124;-68
2021/08/27 06:49:40;;;;;;;1.02;0.52;;;33.70;89.20;;;;;;4177649;28;20057;-66
2021/08/27 06:51:45;;;;;;;0.88;0.60;;;33.60;89.90;;;;;;4176393;28;20411;-67
2021/08/27 06:53:53;;;;;;;0.88;0.40;;;33.60;89.90;;;;;;4171023;28;20056;-68
2021/08/27 06:55:57;;;;;;;2.42;0.63;;;33.60;90.30;;;;;;4174047;28;20404;-68
2021/08/27 06:58:03;;;;;;;1.23;0.88;;;33.60;88.60;;;;;;4176025;28;20037;-67
2021/08/27 07:00:08;;;;;;;1.20;0.65;;;33.60;90.20;;;;;;4174370;28;20072;-68
2021/08/27 07:02:12;;;;;;;1.30;0.68;;;33.70;89.90;;;;;;4165444;28;20508;-68
2021/08/27 07:04:17;;;;;;;1.70;0.85;;;33.60;90.40;;;;;;4172495;28;20033;-67
2021/08/27 07:06:23;;;;;;;2.80;0.82;;;33.30;90.20;;;;;;4177298;28;20060;-67
2021/08/27 07:08:27;;;;;;;1.75;1.10;;;33.30;90.10;;;;;;4177453;28;20384;-67
2021/08/27 07:10:31;;;;;;;1.98;0.93;;;33.30;90.40;;;;;;4172138;28;20052;-68
2021/08/27 07:12:35;;;;;;;1.63;0.93;;;33.30;90.70;;;;;;4171865;28;20128;-66
2021/08/27 07:14:42;;;;;;;5.18;1.17;;;33.20;90.90;;;;;;4169168;28;20456;-67
2021/08/27 07:16:46;;;;;;;3.13;0.80;;;33.00;91.10;;;;;;4159721;28;20045;-67
2021/08/27 07:18:51;;;;;;;1.70;0.90;;;32.80;91.50;;;;;;4176714;28;20126;-67
2021/08/27 07:20:55;;;;;;;2.65;1.10;;;32.70;91.60;;;;;;4173287;28;20041;-67
2021/08/27 07:23:00;;;;;;;1.50;0.95;;;32.70;91.70;;;;;;4165605;28;20365;-67
2021/08/27 07:25:05;;;;;;;1.50;0.80;;;32.60;91.70;;;;;;4164743;28;20121;-67
2021/08/27 07:27:10;;;;;;;1.27;0.70;;;32.40;92.00;;;;;;4166456;28;20041;-67
2021/08/27 07:29:14;;;;;;;1.90;0.80;;;32.10;91.80;;;;;;4164343;28;20504;-66
2021/08/27 07:31:19;;;;;;;1.65;0.60;;;32.00;92.00;;;;;;4150763;28;20167;-66
2021/08/27 07:33:24;;;;;;;3.42;1.38;;;31.80;91.90;;;;;;4175013;28;20041;-67
2021/08/27 07:35:29;;;;;;;3.67;1.88;;;31.70;91.10;;;;;;4175881;28;20338;-67
2021/08/27 07:37:33;;;;;;;5.38;3.00;;;31.40;91.60;;;;;;4176444;28;20063;-67
2021/08/27 07:39:38;;;;;;;2.67;1.83;;;31.40;92.40;;;;;;4176017;28;20677;-66
2021/08/27 07:41:44;;;;;;;3.92;1.60;;;31.40;92.10;;;;;;4174725;28;20103;-67
2021/08/27 07:43:49;;;;;;;4.70;2.08;;;31.40;92.20;;;;;;4176454;28;20037;-67
2021/08/27 07:45:57;;;;;;;3.67;1.85;;;31.30;93.00;;;;;;4175684;28;20479;-66
2021/08/27 07:48:02;;;;;;;4.28;1.75;;;31.40;92.70;;;;;;4174729;28;20087;-66
2021/08/27 07:50:06;;;;;;;7.93;6.18;;;31.50;92.70;;;;;;4176386;28;20055;-67
2021/08/27 07:52:11;;;;;;;24.48;16.85;;;31.30;92.60;;;;;;4176207;28;20109;-66
2021/08/27 07:54:16;;;;;;;41.40;27.48;;;31.40;92.60;;;;;;4173786;28;20044;-66
2021/08/27 07:56:20;;;;;;;29.23;18.90;;;31.20;92.60;;;;;;4173078;28;20083;-66
2021/08/27 07:58:24;;;;;;;19.88;11.43;;;31.50;92.80;;;;;;4174255;28;20064;-66
2021/08/27 08:00:29;;;;;;;10.23;5.18;;;31.60;92.90;;;;;;4175995;28;20086;-66
2021/08/27 08:02:34;;;;;;;8.25;4.93;;;31.60;92.50;;;;;;4175849;28;20510;-67
2021/08/27 08:04:39;;;;;;;12.27;5.30;;;31.40;93.30;;;;;;4148363;28;20476;-66
2021/08/27 08:06:44;;;;;;;8.82;3.85;;;31.70;93.10;;;;;;4172787;28;20566;-64
2021/08/27 08:08:50;;;;;;;4.25;2.17;;;31.70;92.10;;;;;;4174953;28;20083;-66
2021/08/27 08:10:55;;;;;;;3.92;1.83;;;31.90;92.00;;;;;;4176499;28;20049;-65
2021/08/27 08:13:00;;;;;;;4.10;1.65;;;32.20;91.30;;;;;;4159162;28;20049;-66
2021/08/27 08:15:06;;;;;;;2.90;1.30;;;32.50;90.90;;;;;;4173168;28;20075;-66
2021/08/27 08:17:10;;;;;;;3.03;1.55;;;32.60;90.70;;;;;;4173026;28;20060;-66
2021/08/27 08:19:17;;;;;;;2.53;1.13;;;32.70;90.50;;;;;;4174559;28;20147;-66
2021/08/27 08:21:25;;;;;;;2.58;0.90;;;32.80;90.30;;;;;;4174499;28;20053;-66
2021/08/27 08:23:31;;;;;;;1.90;1.02;;;32.80;90.60;;;;;;4170874;28;20074;-67
2021/08/27 08:25:36;;;;;;;2.05;1.08;;;32.80;90.30;;;;;;4176279;28;20037;-66
2021/08/27 08:27:41;;;;;;;1.63;0.90;;;32.90;90.30;;;;;;4170736;28;20045;-66
2021/08/27 08:29:45;;;;;;;2.40;0.93;;;33.00;90.30;;;;;;4171006;28;20053;-66
2021/08/27 08:31:52;;;;;;;0.95;0.50;;;33.10;90.30;;;;;;4172905;28;20041;-66
2021/08/27 08:33:56;;;;;;;1.25;0.90;;;33.10;90.30;;;;;;4173294;28;20040;-66
2021/08/27 08:36:01;;;;;;;2.90;1.25;;;33.20;89.90;;;;;;4176431;28;20487;-65
2021/08/27 08:38:06;;;;;;;2.80;0.70;;;33.20;90.00;;;;;;4164859;28;20603;-66
2021/08/27 08:40:13;;;;;;;2.38;0.80;;;33.20;90.20;;;;;;4171490;28;20491;-66
2021/08/27 08:42:18;;;;;;;1.50;0.80;;;33.20;90.10;;;;;;4171290;28;20068;-66
2021/08/27 08:44:23;;;;;;;1.90;0.90;;;33.20;90.50;;;;;;4159365;28;20787;-66
2021/08/27 08:46:27;;;;;;;1.55;0.57;;;33.10;90.50;;;;;;4170727;28;20064;-66
2021/08/27 08:48:32;;;;;;;1.52;0.55;;;33.00;90.80;;;;;;4170664;28;20048;-66
2021/08/27 08:50:36;;;;;;;2.08;0.90;;;32.90;91.10;;;;;;4170231;28;20887;-67
2021/08/27 08:52:42;;;;;;;1.27;0.65;;;32.80;90.20;;;;;;4171271;28;20055;-66
2021/08/27 08:54:51;;;;;;;0.98;0.70;;;32.50;90.50;;;;;;4174598;28;20528;-67
2021/08/27 08:56:57;;;;;;;2.20;1.15;;;32.30;90.50;;;;;;4162906;28;20099;-66
2021/08/27 08:59:01;;;;;;;3.22;1.70;;;32.20;90.80;;;;;;4172276;28;20530;-66
2021/08/27 09:01:07;;;;;;;3.95;2.65;;;32.10;91.10;;;;;;4173377;28;20492;-66
2021/08/27 09:03:11;;;;;;;5.03;2.30;;;32.00;91.60;;;;;;4174652;28;20126;-66
2021/08/27 09:05:16;;;;;;;5.28;2.75;;;32.00;92.50;;;;;;4170579;28;20079;-65
2021/08/27 09:07:20;;;;;;;4.07;2.00;;;31.90;94.10;;;;;;4175734;28;20068;-66
2021/08/27 09:09:36;;;;;;;4.72;1.70;;;31.70;95.30;;;;;;4174129;28;20415;-66
2021/08/27 09:11:40;;;;;;;4.28;1.25;;;31.60;96.00;;;;;;4163837;28;20507;-66
2021/08/27 09:13:45;;;;;;;2.60;1.20;;;31.50;96.80;;;;;;4160254;28;20045;-66
2021/08/27 09:16:04;;;;;;;3.03;1.25;;;31.50;97.10;;;;;;4161996;28;20037;-67
2021/08/27 09:18:11;;;;;;;3.35;1.13;;;31.40;97.30;;;;;;4149857;28;20042;-66
2021/08/27 09:20:24;;;;;;;2.72;0.70;;;31.30;97.30;;;;;;4164126;28;20443;-66
2021/08/27 09:22:42;;;;;;;;;;;31.10;97.40;;;;;;4170910;28;20144;-66
2021/08/27 09:25:09;;;;;;;1.25;0.70;;;31.10;97.50;;;;;;4170570;28;20011;-66
2021/08/27 09:27:14;;;;;;;1.73;0.40;;;31.00;97.90;;;;;;4158137;28;20041;-66
2021/08/27 09:29:39;;;;;;;0.88;0.47;;;31.10;98.00;;;;;;4165706;28;20037;-65
2021/08/27 09:31:44;;;;;;;1.00;0.30;;;31.00;97.90;;;;;;4170191;28;20080;-66
2021/08/27 09:33:50;;;;;;;2.00;0.82;;;31.00;97.90;;;;;;4171928;28;20045;-66
2021/08/27 09:36:01;;;;;;;3.95;0.73;;;31.00;97.90;;;;;;4141548;28;20104;-66
2021/08/27 09:38:14;;;;;;;2.55;0.77;;;31.00;98.20;;;;;;4175789;28;20056;-66
2021/08/27 09:40:19;;;;;;;;;;;30.90;98.20;;;;;;4179766;28;20045;-66
2021/08/27 09:42:24;;;;;;;1.60;0.60;;;31.00;98.20;;;;;;4179229;28;19931;-66
2021/08/27 09:44:29;;;;;;;0.52;0.30;;;31.00;98.10;;;;;;4159955;28;20049;-67
2021/08/27 09:46:45;;;;;;;1.25;0.50;;;31.10;98.00;;;;;;4176455;28;20037;-67
2021/08/27 09:48:50;;;;;;;1.58;0.50;;;31.10;98.20;;;;;;4179293;28;20466;-67
2021/08/27 09:50:54;;;;;;;1.02;0.50;;;31.10;98.30;;;;;;4176330;28;20434;-66
2021/08/27 09:53:02;;;;;;;3.00;0.50;;;31.10;98.00;;;;;;4174436;28;20060;-65
2021/08/27 09:55:08;;;;;;;2.55;0.60;;;31.00;98.00;;;;;;4171834;28;20140;-65
2021/08/27 09:57:13;;;;;;;1.30;0.60;;;31.00;97.50;;;;;;4174211;28;20046;-65
2021/08/27 09:59:17;;;;;;;1.17;0.47;;;31.00;97.30;;;;;;4179356;28;20040;-65
2021/08/27 10:01:22;;;;;;;1.45;0.57;;;31.00;97.40;;;;;;4177313;28;20179;-65
2021/08/27 10:03:27;;;;;;;2.22;0.52;;;31.00;97.50;;;;;;4174809;28;20181;-66
2021/08/27 10:05:38;;;;;;;1.88;0.77;;;31.00;97.50;;;;;;4179762;28;20041;-66
2021/08/27 10:07:43;;;;;;;1.75;0.70;;;30.90;97.70;;;;;;4179811;28;20053;-66
2021/08/27 10:09:47;;;;;;;2.28;0.73;;;30.80;98.10;;;;;;4179527;28;20063;-67
2021/08/27 10:11:58;;;;;;;3.05;0.85;;;30.90;98.40;;;;;;4179191;28;20136;-68
2021/08/27 10:14:03;;;;;;;1.98;0.90;;;30.80;98.50;;;;;;4179045;28;20071;-67
2021/08/27 10:16:07;;;;;;;2.08;0.63;;;30.80;98.70;;;;;;4176766;28;20067;-67
2021/08/27 10:18:12;;;;;;;3.55;0.88;;;30.80;98.70;;;;;;4178942;28;20040;-67
2021/08/27 10:20:17;;;;;;;3.67;0.77;;;30.80;98.40;;;;;;4179154;28;20110;-67
2021/08/27 10:22:21;;;;;;;3.15;0.80;;;30.80;98.40;;;;;;4160863;28;20080;-66
2021/08/27 10:24:25;;;;;;;3.47;0.90;;;30.80;98.30;;;;;;4174377;28;20049;-68
2021/08/27 10:26:29;;;;;;;2.67;0.70;;;30.80;98.60;;;;;;4173246;28;20052;-67
2021/08/27 10:28:34;;;;;;;3.40;0.90;;;30.80;98.80;;;;;;4170863;28;20033;-66
2021/08/27 10:30:52;;;;;;;5.20;1.23;;;30.70;99.10;;;;;;4167934;28;20524;-67
2021/08/27 10:32:56;;;;;;;3.20;1.00;;;30.70;99.20;;;;;;4175317;28;20099;-67
2021/08/27 10:35:01;;;;;;;3.42;0.80;;;30.70;99.00;;;;;;4178559;28;20570;-66
2021/08/27 10:37:05;;;;;;;1.85;0.73;;;30.70;99.10;;;;;;4166910;28;20041;-66
2021/08/27 10:39:10;;;;;;;0.60;0.45;;;30.70;99.30;;;;;;4174287;28;20049;-66
2021/08/27 10:41:30;;;;;;;2.05;0.80;;;30.70;99.20;;;;;;4177817;28;20079;-66
2021/08/27 10:44:06;;;;;;;2.72;0.88;;;30.70;99.20;;;;;;4178056;28;20129;-66
2021/08/27 10:47:02;;;;;;;3.15;0.90;;;30.70;99.20;;;;;;4171799;28;20053;-66
2021/08/27 10:49:06;;;;;;;3.08;1.15;;;30.60;99.70;;;;;;4173139;28;20111;-66
2021/08/27 10:51:27;;;;;;;1.00;0.68;;;30.60;99.90;;;;;;4177726;28;20362;-67
2021/08/27 10:53:37;;;;;;;2.65;0.88;;;30.60;99.90;;;;;;4161086;28;20062;-66
2021/08/27 10:55:51;;;;;;;1.35;0.90;;;30.60;99.90;;;;;;4159968;28;20131;-66
2021/08/27 10:58:04;;;;;;;1.10;0.73;;;30.60;99.90;;;;;;4173083;28;20041;-65
2021/08/27 11:00:10;;;;;;;1.73;0.80;;;30.60;99.90;;;;;;4177219;28;20129;-66
2021/08/27 11:02:14;;;;;;;3.13;0.90;;;30.60;99.90;;;;;;4176528;28;20041;-66
2021/08/27 11:04:23;;;;;;;2.90;0.77;;;30.60;99.90;;;;;;4176383;28;20041;-66
2021/08/27 11:06:28;;;;;;;1.20;0.40;;;30.50;99.90;;;;;;4177262;28;20130;-66
2021/08/27 11:08:33;;;;;;;1.27;0.68;;;30.50;99.90;;;;;;4176162;28;20057;-66
2021/08/27 11:10:39;;;;;;;1.88;0.60;;;30.40;99.90;;;;;;4175446;28;20106;-66
2021/08/27 11:12:44;;;;;;;4.63;0.82;;;30.40;99.90;;;;;;4177575;28;20037;-66
2021/08/27 11:14:53;;;;;;;2.17;0.60;;;30.30;99.90;;;;;;4143160;28;20038;-66
2021/08/27 11:16:58;;;;;;;3.40;0.88;;;30.30;99.90;;;;;;4168096;28;20434;-66